sensor_id;sensor_type;location;lat;lon;timestamp;pressure;altitude;pressure_sealevel;temperature;humidity
40920;BME280;26652;50.280;19.026;2023-04-22T00:00:08;98199.50;;;9.03;67.98
40920;BME280;26652;50.280;19.026;2023-04-22T00:02:37;98200.38;;;9.10;67.76
40920;BME280;26652;50.280;19.026;2023-04-22T00:05:00;98207.06;;;9.26;66.93
40920;BME280;26652;50.280;19.026;2023-04-22T00:07:09;98204.66;;;9.09;67.72
40920;BME280;26652;50.280;19.026;2023-04-22T00:09:30;98205.28;;;9.11;67.91
40920;BME280;26652;50.280;19.026;2023-04-22T00:11:44;98202.31;;;9.08;67.52
40920;BME280;26652;50.280;19.026;2023-04-22T00:14:05;98199.41;;;8.96;69.01
40920;BME280;26652;50.280;19.026;2023-04-22T00:16:14;98198.00;;;8.94;69.05
40920;BME280;26652;50.280;19.026;2023-04-22T00:18:34;98202.34;;;8.85;70.52
40920;BME280;26652;50.280;19.026;2023-04-22T00:20:42;98195.97;;;8.89;69.55
40920;BME280;26652;50.280;19.026;2023-04-22T00:22:55;98198.84;;;8.86;69.93
40920;BME280;26652;50.280;19.026;2023-04-22T00:25:03;98198.97;;;8.93;69.05
40920;BME280;26652;50.280;19.026;2023-04-22T00:27:16;98199.28;;;8.90;68.56
40920;BME280;26652;50.280;19.026;2023-04-22T00:29:22;98203.50;;;8.97;68.79
40920;BME280;26652;50.280;19.026;2023-04-22T00:31:36;98197.53;;;8.90;69.39
40920;BME280;26652;50.280;19.026;2023-04-22T00:33:54;98191.53;;;8.68;70.42
40920;BME280;26652;50.280;19.026;2023-04-22T00:36:08;98201.87;;;8.67;70.78
40920;BME280;26652;50.280;19.026;2023-04-22T00:38:26;98197.00;;;8.80;69.65
40920;BME280;26652;50.280;19.026;2023-04-22T00:40:47;98182.75;;;8.56;69.96
40920;BME280;26652;50.280;19.026;2023-04-22T00:42:55;98192.16;;;8.70;69.34
40920;BME280;26652;50.280;19.026;2023-04-22T00:45:26;98183.91;;;8.53;70.53
40920;BME280;26652;50.280;19.026;2023-04-22T00:47:36;98190.25;;;8.49;71.78
40920;BME280;26652;50.280;19.026;2023-04-22T00:49:48;98189.97;;;8.44;72.47
40920;BME280;26652;50.280;19.026;2023-04-22T00:51:59;98181.34;;;8.53;71.64
40920;BME280;26652;50.280;19.026;2023-04-22T00:54:18;98189.88;;;8.61;71.73
40920;BME280;26652;50.280;19.026;2023-04-22T00:56:43;98176.56;;;8.59;71.67
40920;BME280;26652;50.280;19.026;2023-04-22T00:58:55;98195.28;;;8.58;72.32
40920;BME280;26652;50.280;19.026;2023-04-22T01:01:02;98193.34;;;8.60;70.43
40920;BME280;26652;50.280;19.026;2023-04-22T01:03:20;98187.59;;;8.66;69.89
40920;BME280;26652;50.280;19.026;2023-04-22T01:05:30;98197.69;;;8.74;69.74
40920;BME280;26652;50.280;19.026;2023-04-22T01:07:46;98196.56;;;8.76;69.11
40920;BME280;26652;50.280;19.026;2023-04-22T01:10:00;98198.47;;;8.74;70.17
40920;BME280;26652;50.280;19.026;2023-04-22T01:12:13;98183.78;;;8.47;70.65
40920;BME280;26652;50.280;19.026;2023-04-22T01:14:21;98186.66;;;8.44;72.50
40920;BME280;26652;50.280;19.026;2023-04-22T01:16:50;98198.03;;;8.48;71.33
40920;BME280;26652;50.280;19.026;2023-04-22T01:18:59;98199.72;;;8.33;71.89
40920;BME280;26652;50.280;19.026;2023-04-22T01:21:19;98200.56;;;8.25;71.45
40920;BME280;26652;50.280;19.026;2023-04-22T01:23:27;98195.37;;;8.18;71.67
40920;BME280;26652;50.280;19.026;2023-04-22T01:25:40;98197.13;;;8.18;72.13
40920;BME280;26652;50.280;19.026;2023-04-22T01:27:49;98188.06;;;8.24;71.29
40920;BME280;26652;50.280;19.026;2023-04-22T01:30:04;98194.87;;;8.23;71.62
40920;BME280;26652;50.280;19.026;2023-04-22T01:32:09;98193.25;;;8.30;71.74
40920;BME280;26652;50.280;19.026;2023-04-22T01:34:23;98194.31;;;8.36;70.94
40920;BME280;26652;50.280;19.026;2023-04-22T01:36:30;98189.38;;;8.42;70.84
40920;BME280;26652;50.280;19.026;2023-04-22T01:38:45;98190.94;;;8.43;70.73
40920;BME280;26652;50.280;19.026;2023-04-22T01:40:54;98178.50;;;8.34;71.22
40920;BME280;26652;50.280;19.026;2023-04-22T01:43:10;98185.34;;;8.25;75.45
40920;BME280;26652;50.280;19.026;2023-04-22T01:45:18;98187.22;;;8.31;75.01
40920;BME280;26652;50.280;19.026;2023-04-22T01:47:36;98177.00;;;8.16;76.67
40920;BME280;26652;50.280;19.026;2023-04-22T01:49:45;98196.63;;;8.23;75.06
40920;BME280;26652;50.280;19.026;2023-04-22T01:52:00;98188.06;;;8.24;75.10
40920;BME280;26652;50.280;19.026;2023-04-22T01:54:13;98187.28;;;8.23;75.06
40920;BME280;26652;50.280;19.026;2023-04-22T01:56:23;98178.75;;;8.16;76.14
40920;BME280;26652;50.280;19.026;2023-04-22T01:58:33;98186.19;;;8.17;75.00
40920;BME280;26652;50.280;19.026;2023-04-22T02:00:47;98194.75;;;8.16;75.13
40920;BME280;26652;50.280;19.026;2023-04-22T02:03:01;98190.41;;;8.02;75.88
40920;BME280;26652;50.280;19.026;2023-04-22T02:05:13;98186.16;;;7.95;74.65
40920;BME280;26652;50.280;19.026;2023-04-22T02:07:22;98184.91;;;7.91;74.55
40920;BME280;26652;50.280;19.026;2023-04-22T02:09:42;98186.63;;;7.98;74.62
40920;BME280;26652;50.280;19.026;2023-04-22T02:11:48;98173.28;;;8.04;74.87
40920;BME280;26652;50.280;19.026;2023-04-22T02:13:59;98183.41;;;8.04;74.92
40920;BME280;26652;50.280;19.026;2023-04-22T02:16:11;98181.56;;;7.98;75.67
40920;BME280;26652;50.280;19.026;2023-04-22T02:18:25;98179.13;;;7.74;78.14
40920;BME280;26652;50.280;19.026;2023-04-22T02:20:33;98183.91;;;7.69;79.96
40920;BME280;26652;50.280;19.026;2023-04-22T02:22:50;98192.47;;;7.68;79.73
40920;BME280;26652;50.280;19.026;2023-04-22T02:24:59;98187.41;;;7.68;78.86
40920;BME280;26652;50.280;19.026;2023-04-22T02:27:17;98190.56;;;7.70;76.71
40920;BME280;26652;50.280;19.026;2023-04-22T02:29:26;98186.91;;;7.72;78.02
40920;BME280;26652;50.280;19.026;2023-04-22T02:31:38;98184.66;;;7.77;77.00
40920;BME280;26652;50.280;19.026;2023-04-22T02:33:47;98184.38;;;7.72;78.94
40920;BME280;26652;50.280;19.026;2023-04-22T02:36:00;98186.00;;;7.57;78.70
40920;BME280;26652;50.280;19.026;2023-04-22T02:38:11;98186.00;;;7.57;77.49
40920;BME280;26652;50.280;19.026;2023-04-22T02:40:23;98173.88;;;7.44;78.69
40920;BME280;26652;50.280;19.026;2023-04-22T02:42:29;98181.81;;;7.33;80.35
40920;BME280;26652;50.280;19.026;2023-04-22T02:44:43;98179.59;;;7.38;79.89
40920;BME280;26652;50.280;19.026;2023-04-22T02:47:07;98168.97;;;7.43;78.33
40920;BME280;26652;50.280;19.026;2023-04-22T02:49:19;98177.34;;;7.43;78.33
40920;BME280;26652;50.280;19.026;2023-04-22T02:51:43;98182.25;;;7.45;78.47
40920;BME280;26652;50.280;19.026;2023-04-22T02:54:01;98175.78;;;7.42;78.32
40920;BME280;26652;50.280;19.026;2023-04-22T02:56:20;98180.56;;;7.29;79.96
40920;BME280;26652;50.280;19.026;2023-04-22T02:58:35;98191.06;;;7.18;80.42
40920;BME280;26652;50.280;19.026;2023-04-22T03:00:44;98184.28;;;7.10;80.80
40920;BME280;26652;50.280;19.026;2023-04-22T03:03:02;98187.28;;;7.14;80.57
40920;BME280;26652;50.280;19.026;2023-04-22T03:05:17;98179.66;;;7.22;79.56
40920;BME280;26652;50.280;19.026;2023-04-22T03:07:41;98182.03;;;7.24;79.76
40920;BME280;26652;50.280;19.026;2023-04-22T03:09:50;98177.59;;;7.26;79.83
40920;BME280;26652;50.280;19.026;2023-04-22T03:12:03;98176.66;;;7.27;79.25
40920;BME280;26652;50.280;19.026;2023-04-22T03:14:11;98173.66;;;7.15;79.32
40920;BME280;26652;50.280;19.026;2023-04-22T03:16:35;98172.41;;;7.11;80.25
40920;BME280;26652;50.280;19.026;2023-04-22T03:18:44;98188.53;;;7.18;80.13
40920;BME280;26652;50.280;19.026;2023-04-22T03:20:59;98184.28;;;7.10;79.84
40920;BME280;26652;50.280;19.026;2023-04-22T03:23:08;98184.91;;;7.12;79.78
40920;BME280;26652;50.280;19.026;2023-04-22T03:25:32;98178.41;;;7.18;79.61
40920;BME280;26652;50.280;19.026;2023-04-22T03:27:40;98179.97;;;7.27;80.96
40920;BME280;26652;50.280;19.026;2023-04-22T03:30:09;98185.03;;;7.27;81.13
40920;BME280;26652;50.280;19.026;2023-04-22T03:32:15;98182.53;;;7.03;81.90
40920;BME280;26652;50.280;19.026;2023-04-22T03:34:29;98177.50;;;6.95;81.21
40920;BME280;26652;50.280;19.026;2023-04-22T03:36:41;98181.13;;;6.92;82.45
40920;BME280;26652;50.280;19.026;2023-04-22T03:38:53;98185.88;;;7.03;81.25
40920;BME280;26652;50.280;19.026;2023-04-22T03:41:12;98180.03;;;6.95;81.31
40920;BME280;26652;50.280;19.026;2023-04-22T03:43:34;98185.72;;;6.97;81.66
40920;BME280;26652;50.280;19.026;2023-04-22T03:45:43;98186.97;;;7.01;81.18
40920;BME280;26652;50.280;19.026;2023-04-22T03:47:53;98192.81;;;7.09;80.75
40920;BME280;26652;50.280;19.026;2023-04-22T03:50:05;98180.44;;;7.22;80.61
40920;BME280;26652;50.280;19.026;2023-04-22T03:52:15;98185.38;;;7.16;81.72
40920;BME280;26652;50.280;19.026;2023-04-22T03:54:25;98185.88;;;6.95;83.12
40920;BME280;26652;50.280;19.026;2023-04-22T03:56:51;98178.94;;;6.89;83.73
40920;BME280;26652;50.280;19.026;2023-04-22T03:59:01;98184.47;;;6.93;83.13
40920;BME280;26652;50.280;19.026;2023-04-22T04:01:13;98196.00;;;7.03;82.03
40920;BME280;26652;50.280;19.026;2023-04-22T04:03:27;98187.31;;;6.98;82.24
40920;BME280;26652;50.280;19.026;2023-04-22T04:05:49;98189.22;;;6.87;82.60
40920;BME280;26652;50.280;19.026;2023-04-22T04:08:03;98188.09;;;6.90;83.31
40920;BME280;26652;50.280;19.026;2023-04-22T04:10:12;98184.16;;;6.87;83.89
40920;BME280;26652;50.280;19.026;2023-04-22T04:12:23;98190.16;;;6.86;83.49
40920;BME280;26652;50.280;19.026;2023-04-22T04:14:32;98188.25;;;6.97;83.68
40920;BME280;26652;50.280;19.026;2023-04-22T04:16:46;98190.12;;;7.03;82.99
40920;BME280;26652;50.280;19.026;2023-04-22T04:18:58;98189.03;;;6.97;82.78
40920;BME280;26652;50.280;19.026;2023-04-22T04:21:17;98188.38;;;7.11;83.04
40920;BME280;26652;50.280;19.026;2023-04-22T04:23:30;98196.00;;;6.95;85.10
40920;BME280;26652;50.280;19.026;2023-04-22T04:25:44;98174.34;;;6.68;86.18
40920;BME280;26652;50.280;19.026;2023-04-22T04:27:52;98174.50;;;6.75;85.01
40920;BME280;26652;50.280;19.026;2023-04-22T04:30:06;98193.00;;;6.92;84.06
40920;BME280;26652;50.280;19.026;2023-04-22T04:32:17;98186.50;;;6.97;84.31
40920;BME280;26652;50.280;19.026;2023-04-22T04:34:37;98200.25;;;7.03;83.49
40920;BME280;26652;50.280;19.026;2023-04-22T04:36:55;98196.31;;;6.92;83.29
40920;BME280;26652;50.280;19.026;2023-04-22T04:39:07;98202.94;;;7.09;83.87
40920;BME280;26652;50.280;19.026;2023-04-22T04:41:15;98193.47;;;7.03;84.11
40920;BME280;26652;50.280;19.026;2023-04-22T04:43:26;98195.19;;;7.19;84.08
40920;BME280;26652;50.280;19.026;2023-04-22T04:45:44;98192.47;;;7.20;83.06
40920;BME280;26652;50.280;19.026;2023-04-22T04:47:54;98207.03;;;7.27;82.95
40920;BME280;26652;50.280;19.026;2023-04-22T04:50:03;98199.06;;;7.30;83.18
40920;BME280;26652;50.280;19.026;2023-04-22T04:52:21;98198.44;;;7.36;83.60
40920;BME280;26652;50.280;19.026;2023-04-22T04:54:29;98203.94;;;7.39;84.28
40920;BME280;26652;50.280;19.026;2023-04-22T04:56:53;98206.47;;;7.47;85.89
40920;BME280;26652;50.280;19.026;2023-04-22T04:59:19;98205.50;;;7.48;86.87
40920;BME280;26652;50.280;19.026;2023-04-22T05:01:42;98212.53;;;7.77;82.38
40920;BME280;26652;50.280;19.026;2023-04-22T05:03:51;98201.34;;;8.03;80.50
40920;BME280;26652;50.280;19.026;2023-04-22T05:06:05;98207.47;;;8.08;80.78
40920;BME280;26652;50.280;19.026;2023-04-22T05:08:10;98206.75;;;8.23;79.46
40920;BME280;26652;50.280;19.026;2023-04-22T05:10:18;98211.78;;;8.31;80.40
40920;BME280;26652;50.280;19.026;2023-04-22T05:12:32;98210.91;;;8.46;81.07
40920;BME280;26652;50.280;19.026;2023-04-22T05:14:45;98202.44;;;8.54;80.00
40920;BME280;26652;50.280;19.026;2023-04-22T05:17:04;98203.88;;;8.71;77.25
40920;BME280;26652;50.280;19.026;2023-04-22T05:19:15;98204.72;;;8.87;75.89
40920;BME280;26652;50.280;19.026;2023-04-22T05:21:23;98208.88;;;9.02;74.43
40920;BME280;26652;50.280;19.026;2023-04-22T05:23:47;98206.69;;;9.14;75.38
40920;BME280;26652;50.280;19.026;2023-04-22T05:25:56;98206.34;;;9.32;76.59
40920;BME280;26652;50.280;19.026;2023-04-22T05:28:04;98211.59;;;9.30;75.54
40920;BME280;26652;50.280;19.026;2023-04-22T05:30:30;98214.75;;;9.47;75.13
40920;BME280;26652;50.280;19.026;2023-04-22T05:32:59;98211.66;;;9.51;71.66
40920;BME280;26652;50.280;19.026;2023-04-22T05:35:09;98215.53;;;9.62;70.15
40920;BME280;26652;50.280;19.026;2023-04-22T05:37:28;98219.81;;;9.76;69.84
40920;BME280;26652;50.280;19.026;2023-04-22T05:39:43;98214.91;;;9.75;68.27
40920;BME280;26652;50.280;19.026;2023-04-22T05:42:00;98219.53;;;9.86;68.98
40920;BME280;26652;50.280;19.026;2023-04-22T05:44:09;98225.03;;;9.90;68.22
40920;BME280;26652;50.280;19.026;2023-04-22T05:46:20;98218.09;;;9.98;66.00
40920;BME280;26652;50.280;19.026;2023-04-22T05:48:29;98214.84;;;10.04;65.41
40920;BME280;26652;50.280;19.026;2023-04-22T05:50:52;98220.78;;;10.26;65.66
40920;BME280;26652;50.280;19.026;2023-04-22T05:53:08;98217.94;;;10.36;64.74
40920;BME280;26652;50.280;19.026;2023-04-22T05:55:25;98211.03;;;10.51;65.39
40920;BME280;26652;50.280;19.026;2023-04-22T05:57:35;98214.66;;;10.63;65.07
40920;BME280;26652;50.280;19.026;2023-04-22T05:59:51;98217.50;;;10.75;64.65
40920;BME280;26652;50.280;19.026;2023-04-22T06:02:10;98224.06;;;10.91;63.40
40920;BME280;26652;50.280;19.026;2023-04-22T06:04:29;98222.75;;;10.95;62.69
40920;BME280;26652;50.280;19.026;2023-04-22T06:06:47;98229.66;;;11.01;61.67
40920;BME280;26652;50.280;19.026;2023-04-22T06:09:02;98229.31;;;11.10;61.13
40920;BME280;26652;50.280;19.026;2023-04-22T06:11:10;98227.59;;;11.18;61.17
40920;BME280;26652;50.280;19.026;2023-04-22T06:13:33;98230.44;;;11.29;60.95
40920;BME280;26652;50.280;19.026;2023-04-22T06:15:42;98234.41;;;11.38;61.82
40920;BME280;26652;50.280;19.026;2023-04-22T06:17:53;98231.69;;;11.46;61.61
40920;BME280;26652;50.280;19.026;2023-04-22T06:20:02;98230.75;;;11.54;61.81
40920;BME280;26652;50.280;19.026;2023-04-22T06:22:15;98240.81;;;11.69;60.00
40920;BME280;26652;50.280;19.026;2023-04-22T06:24:27;98234.78;;;11.76;59.59
40920;BME280;26652;50.280;19.026;2023-04-22T06:26:47;98228.38;;;11.87;59.74
40920;BME280;26652;50.280;19.026;2023-04-22T06:28:56;98229.00;;;11.96;58.56
40920;BME280;26652;50.280;19.026;2023-04-22T06:31:07;98238.88;;;12.12;58.41
40920;BME280;26652;50.280;19.026;2023-04-22T06:33:19;98235.72;;;12.17;57.31
40920;BME280;26652;50.280;19.026;2023-04-22T06:35:38;98233.41;;;12.28;56.77
40920;BME280;26652;50.280;19.026;2023-04-22T06:37:48;98243.25;;;12.44;56.72
40920;BME280;26652;50.280;19.026;2023-04-22T06:40:06;98229.69;;;12.57;55.78
40920;BME280;26652;50.280;19.026;2023-04-22T06:42:13;98236.19;;;12.73;55.82
40920;BME280;26652;50.280;19.026;2023-04-22T06:44:28;98233.06;;;12.97;55.35
40920;BME280;26652;50.280;19.026;2023-04-22T06:46:37;98238.00;;;13.19;54.10
40920;BME280;26652;50.280;19.026;2023-04-22T06:49:05;98244.25;;;13.36;54.41
40920;BME280;26652;50.280;19.026;2023-04-22T06:51:19;98240.06;;;14.13;53.57
40920;BME280;26652;50.280;19.026;2023-04-22T06:53:34;98247.03;;;15.73;49.47
40920;BME280;26652;50.280;19.026;2023-04-22T06:55:43;98244.78;;;17.31;45.33
40920;BME280;26652;50.280;19.026;2023-04-22T06:58:05;98256.13;;;18.68;41.80
40920;BME280;26652;50.280;19.026;2023-04-22T07:00:14;98254.25;;;20.01;40.45
40920;BME280;26652;50.280;19.026;2023-04-22T07:02:24;98256.34;;;21.21;38.13
40920;BME280;26652;50.280;19.026;2023-04-22T07:04:41;98264.75;;;22.22;35.64
40920;BME280;26652;50.280;19.026;2023-04-22T07:06:53;98265.59;;;22.88;35.42
40920;BME280;26652;50.280;19.026;2023-04-22T07:09:02;98269.56;;;23.70;33.51
40920;BME280;26652;50.280;19.026;2023-04-22T07:11:13;98263.87;;;23.63;33.69
40920;BME280;26652;50.280;19.026;2023-04-22T07:13:28;98264.41;;;23.65;36.62
40920;BME280;26652;50.280;19.026;2023-04-22T07:15:46;98269.13;;;24.52;32.51
40920;BME280;26652;50.280;19.026;2023-04-22T07:18:00;98275.88;;;25.16;31.22
40920;BME280;26652;50.280;19.026;2023-04-22T07:20:29;98277.03;;;25.28;30.93
40920;BME280;26652;50.280;19.026;2023-04-22T07:22:44;98277.91;;;25.90;28.22
40920;BME280;26652;50.280;19.026;2023-04-22T07:25:01;98276.22;;;25.99;28.62
40920;BME280;26652;50.280;19.026;2023-04-22T07:27:07;98277.47;;;25.59;30.05
40920;BME280;26652;50.280;19.026;2023-04-22T07:29:18;98274.56;;;25.66;30.26
40920;BME280;26652;50.280;19.026;2023-04-22T07:31:31;98281.66;;;25.84;29.53
40920;BME280;26652;50.280;19.026;2023-04-22T07:33:42;98272.97;;;26.07;27.81
40920;BME280;26652;50.280;19.026;2023-04-22T07:35:51;98280.25;;;25.92;27.48
40920;BME280;26652;50.280;19.026;2023-04-22T07:38:08;98275.34;;;25.66;28.47
40920;BME280;26652;50.280;19.026;2023-04-22T07:40:16;98273.38;;;25.53;29.26
40920;BME280;26652;50.280;19.026;2023-04-22T07:42:34;98276.09;;;24.90;29.69
40920;BME280;26652;50.280;19.026;2023-04-22T07:44:46;98277.59;;;24.23;29.40
40920;BME280;26652;50.280;19.026;2023-04-22T07:47:00;98268.72;;;24.34;29.90
40920;BME280;26652;50.280;19.026;2023-04-22T07:49:10;98264.47;;;24.49;28.87
40920;BME280;26652;50.280;19.026;2023-04-22T07:51:28;98267.94;;;24.34;31.94
40920;BME280;26652;50.280;19.026;2023-04-22T07:53:37;98268.88;;;24.48;30.31
40920;BME280;26652;50.280;19.026;2023-04-22T07:55:49;98276.78;;;24.72;28.69
40920;BME280;26652;50.280;19.026;2023-04-22T07:58:02;98272.75;;;24.85;27.87
40920;BME280;26652;50.280;19.026;2023-04-22T08:00:14;98275.59;;;25.17;27.43
40920;BME280;26652;50.280;19.026;2023-04-22T08:02:25;98276.16;;;25.14;27.41
40920;BME280;26652;50.280;19.026;2023-04-22T08:04:37;98272.09;;;25.27;25.97
40920;BME280;26652;50.280;19.026;2023-04-22T08:06:45;98277.16;;;25.18;26.02
40920;BME280;26652;50.280;19.026;2023-04-22T08:08:59;98279.81;;;24.84;26.12
40920;BME280;26652;50.280;19.026;2023-04-22T08:11:08;98274.44;;;24.70;26.72
40920;BME280;26652;50.280;19.026;2023-04-22T08:13:31;98272.56;;;24.42;27.39
40920;BME280;26652;50.280;19.026;2023-04-22T08:15:40;98266.91;;;23.86;29.19
40920;BME280;26652;50.280;19.026;2023-04-22T08:18:04;98271.75;;;24.02;26.40
40920;BME280;26652;50.280;19.026;2023-04-22T08:20:18;98267.78;;;23.66;27.13
40920;BME280;26652;50.280;19.026;2023-04-22T08:22:40;98266.03;;;23.31;31.40
40920;BME280;26652;50.280;19.026;2023-04-22T08:24:48;98255.44;;;23.07;32.87
40920;BME280;26652;50.280;19.026;2023-04-22T08:26:59;98270.00;;;22.47;29.04
40920;BME280;26652;50.280;19.026;2023-04-22T08:29:17;98262.97;;;22.47;31.12
40920;BME280;26652;50.280;19.026;2023-04-22T08:31:29;98266.78;;;22.04;28.29
40920;BME280;26652;50.280;19.026;2023-04-22T08:33:39;98262.09;;;22.01;30.12
40920;BME280;26652;50.280;19.026;2023-04-22T08:35:54;98266.47;;;21.96;29.17
40920;BME280;26652;50.280;19.026;2023-04-22T08:38:02;98268.16;;;22.42;29.73
40920;BME280;26652;50.280;19.026;2023-04-22T08:40:21;98258.06;;;22.66;29.06
40920;BME280;26652;50.280;19.026;2023-04-22T08:42:29;98262.47;;;22.76;27.55
40920;BME280;26652;50.280;19.026;2023-04-22T08:44:41;98257.53;;;22.59;28.97
40920;BME280;26652;50.280;19.026;2023-04-22T08:46:47;98259.09;;;22.75;26.90
40920;BME280;26652;50.280;19.026;2023-04-22T08:49:15;98264.00;;;22.97;27.52
40920;BME280;26652;50.280;19.026;2023-04-22T08:51:49;98262.22;;;22.67;27.52
40920;BME280;26652;50.280;19.026;2023-04-22T08:54:00;98252.62;;;22.63;27.24
40920;BME280;26652;50.280;19.026;2023-04-22T08:56:14;98257.06;;;22.82;26.69
40920;BME280;26652;50.280;19.026;2023-04-22T08:58:19;98258.56;;;22.89;26.87
40920;BME280;26652;50.280;19.026;2023-04-22T09:00:32;98252.88;;;22.61;28.01
40920;BME280;26652;50.280;19.026;2023-04-22T09:02:45;98258.81;;;22.36;30.51
40920;BME280;26652;50.280;19.026;2023-04-22T09:04:59;98252.56;;;22.22;28.83
40920;BME280;26652;50.280;19.026;2023-04-22T09:07:06;98242.72;;;22.19;30.16
40920;BME280;26652;50.280;19.026;2023-04-22T09:09:15;98241.31;;;21.76;29.01
40920;BME280;26652;50.280;19.026;2023-04-22T09:11:25;98225.00;;;21.96;29.95
40920;BME280;26652;50.280;19.026;2023-04-22T09:13:40;98243.91;;;21.76;29.87
40920;BME280;26652;50.280;19.026;2023-04-22T09:15:48;98245.41;;;21.67;31.26
40920;BME280;26652;50.280;19.026;2023-04-22T09:18:02;98238.22;;;21.79;32.19
40920;BME280;26652;50.280;19.026;2023-04-22T09:20:12;98234.81;;;21.73;31.26
40920;BME280;26652;50.280;19.026;2023-04-22T09:22:26;98231.25;;;20.90;30.34
40920;BME280;26652;50.280;19.026;2023-04-22T09:24:32;98232.84;;;20.96;30.97
40920;BME280;26652;50.280;19.026;2023-04-22T09:26:42;98223.75;;;20.88;32.38
40920;BME280;26652;50.280;19.026;2023-04-22T09:28:56;98231.22;;;21.22;30.17
40920;BME280;26652;50.280;19.026;2023-04-22T09:31:13;98223.09;;;21.56;29.67
40920;BME280;26652;50.280;19.026;2023-04-22T09:33:25;98222.06;;;21.09;30.57
40920;BME280;26652;50.280;19.026;2023-04-22T09:35:40;98215.44;;;21.24;32.68
40920;BME280;26652;50.280;19.026;2023-04-22T09:37:51;98212.00;;;21.18;31.36
40920;BME280;26652;50.280;19.026;2023-04-22T09:40:01;98216.38;;;21.12;31.41
40920;BME280;26652;50.280;19.026;2023-04-22T09:42:08;98209.94;;;21.15;30.74
40920;BME280;26652;50.280;19.026;2023-04-22T09:44:27;98211.19;;;21.07;32.16
40920;BME280;26652;50.280;19.026;2023-04-22T09:46:38;98210.06;;;21.35;32.03
40920;BME280;26652;50.280;19.026;2023-04-22T09:48:50;98206.91;;;21.28;32.66
40920;BME280;26652;50.280;19.026;2023-04-22T09:50:59;98205.59;;;21.26;31.23
40920;BME280;26652;50.280;19.026;2023-04-22T09:53:13;98205.78;;;21.66;33.37
40920;BME280;26652;50.280;19.026;2023-04-22T09:55:20;98207.38;;;21.87;32.19
40920;BME280;26652;50.280;19.026;2023-04-22T09:57:29;98203.41;;;21.60;30.96
40920;BME280;26652;50.280;19.026;2023-04-22T09:59:41;98198.91;;;22.23;32.54
40920;BME280;26652;50.280;19.026;2023-04-22T10:02:03;98204.88;;;22.64;30.19
40920;BME280;26652;50.280;19.026;2023-04-22T10:04:15;98198.38;;;22.81;31.09
40920;BME280;26652;50.280;19.026;2023-04-22T10:06:36;98201.25;;;22.80;29.96
40920;BME280;26652;50.280;19.026;2023-04-22T10:08:41;98212.84;;;23.13;28.47
40920;BME280;26652;50.280;19.026;2023-04-22T10:10:51;98196.16;;;23.34;27.78
40920;BME280;26652;50.280;19.026;2023-04-22T10:12:59;98200.28;;;23.40;28.24
40920;BME280;26652;50.280;19.026;2023-04-22T10:15:08;98188.28;;;23.49;27.99
40920;BME280;26652;50.280;19.026;2023-04-22T10:17:17;98188.31;;;23.55;29.22
40920;BME280;26652;50.280;19.026;2023-04-22T10:19:32;98187.53;;;23.54;28.85
40920;BME280;26652;50.280;19.026;2023-04-22T10:21:40;98162.09;;;23.41;29.26
40920;BME280;26652;50.280;19.026;2023-04-22T10:23:53;98192.94;;;23.63;30.12
40920;BME280;26652;50.280;19.026;2023-04-22T10:26:06;98184.19;;;23.33;30.38
40920;BME280;26652;50.280;19.026;2023-04-22T10:28:28;98188.25;;;23.65;29.53
40920;BME280;26652;50.280;19.026;2023-04-22T10:30:38;98185.44;;;23.51;32.28
40920;BME280;26652;50.280;19.026;2023-04-22T10:32:50;98178.22;;;23.33;30.44
40920;BME280;26652;50.280;19.026;2023-04-22T10:35:13;98182.19;;;23.15;29.22
40920;BME280;26652;50.280;19.026;2023-04-22T10:37:25;98178.59;;;23.01;32.67
40920;BME280;26652;50.280;19.026;2023-04-22T10:39:36;98171.63;;;22.76;31.48
40920;BME280;26652;50.280;19.026;2023-04-22T10:42:07;98167.22;;;22.87;33.71
40920;BME280;26652;50.280;19.026;2023-04-22T10:44:14;98163.34;;;22.84;33.15
40920;BME280;26652;50.280;19.026;2023-04-22T10:48:50;98155.03;;;22.77;31.00
40920;BME280;26652;50.280;19.026;2023-04-22T10:53:47;98152.09;;;23.09;33.72
40920;BME280;26652;50.280;19.026;2023-04-22T10:56:01;98151.19;;;22.49;30.06
40920;BME280;26652;50.280;19.026;2023-04-22T10:58:19;98157.41;;;22.23;30.15
40920;BME280;26652;50.280;19.026;2023-04-22T11:00:42;98154.56;;;22.14;32.50
40920;BME280;26652;50.280;19.026;2023-04-22T11:03:11;98164.66;;;22.21;31.54
40920;BME280;26652;50.280;19.026;2023-04-22T11:05:27;98148.31;;;22.05;31.48
40920;BME280;26652;50.280;19.026;2023-04-22T11:07:36;98151.97;;;22.19;31.96
40920;BME280;26652;50.280;19.026;2023-04-22T11:09:52;98158.69;;;22.30;31.20
40920;BME280;26652;50.280;19.026;2023-04-22T11:14:50;98150.66;;;22.27;29.79
40920;BME280;26652;50.280;19.026;2023-04-22T11:17:03;98141.31;;;22.05;30.65
40920;BME280;26652;50.280;19.026;2023-04-22T11:19:22;98144.03;;;21.38;30.19
40920;BME280;26652;50.280;19.026;2023-04-22T11:21:31;98139.69;;;21.64;31.12
40920;BME280;26652;50.280;19.026;2023-04-22T11:23:51;98141.50;;;21.58;30.47
40920;BME280;26652;50.280;19.026;2023-04-22T11:26:07;98135.59;;;21.78;29.09
40920;BME280;26652;50.280;19.026;2023-04-22T11:28:27;98131.72;;;22.16;31.85
40920;BME280;26652;50.280;19.026;2023-04-22T11:30:33;98123.69;;;22.23;30.94
40920;BME280;26652;50.280;19.026;2023-04-22T11:32:49;98126.28;;;22.23;29.24
40920;BME280;26652;50.280;19.026;2023-04-22T11:34:55;98114.62;;;22.25;29.20
40920;BME280;26652;50.280;19.026;2023-04-22T11:37:05;98115.66;;;22.19;30.19
40920;BME280;26652;50.280;19.026;2023-04-22T11:39:13;98131.22;;;22.34;29.84
40920;BME280;26652;50.280;19.026;2023-04-22T11:41:35;98129.66;;;22.13;30.44
40920;BME280;26652;50.280;19.026;2023-04-22T11:43:47;98133.28;;;22.07;30.68
40920;BME280;26652;50.280;19.026;2023-04-22T11:46:06;98138.69;;;22.00;29.69
40920;BME280;26652;50.280;19.026;2023-04-22T11:48:32;98125.97;;;21.88;31.39
40920;BME280;26652;50.280;19.026;2023-04-22T11:51:05;98121.38;;;22.21;31.68